sensor_id;sensor_type;location;lat;lon;timestamp;pressure;altitude;pressure_sealevel;temperature;humidity
30873;BME280;17579;42.690;2.586;2022-11-20T00:01:41;97080.06;;;10.03;48.71
30873;BME280;17579;42.690;2.586;2022-11-20T00:04:08;97077.28;;;10.04;48.83
30873;BME280;17579;42.690;2.586;2022-11-20T00:06:35;97066.72;;;10.04;48.46
30873;BME280;17579;42.690;2.586;2022-11-20T00:09:00;97077.28;;;10.04;48.21
30873;BME280;17579;42.690;2.586;2022-11-20T00:11:27;97077.44;;;10.03;48.14
30873;BME280;17579;42.690;2.586;2022-11-20T00:13:56;97072.97;;;10.03;48.12
30873;BME280;17579;42.690;2.586;2022-11-20T00:16:26;97066.84;;;10.03;47.78
30873;BME280;17579;42.690;2.586;2022-11-20T00:18:52;97067.81;;;10.02;47.61
30873;BME280;17579;42.690;2.586;2022-11-20T00:21:21;97067.16;;;10.00;47.56
30873;BME280;17579;42.690;2.586;2022-11-20T00:23:48;97068.13;;;9.99;47.81
30873;BME280;17579;42.690;2.586;2022-11-20T00:26:16;97057.56;;;9.99;47.78
30873;BME280;17579;42.690;2.586;2022-11-20T00:28:43;97055.72;;;9.99;47.98
30873;BME280;17579;42.690;2.586;2022-11-20T00:31:14;97057.69;;;9.97;47.90
30873;BME280;17579;42.690;2.586;2022-11-20T00:33:40;97055.06;;;9.97;47.59
30873;BME280;17579;42.690;2.586;2022-11-20T00:36:11;97055.22;;;9.96;47.41
30873;BME280;17579;42.690;2.586;2022-11-20T00:38:38;97055.06;;;9.97;47.24
30873;BME280;17579;42.690;2.586;2022-11-20T00:41:06;97056.03;;;9.96;47.62
30873;BME280;17579;42.690;2.586;2022-11-20T00:43:32;97051.56;;;9.97;47.25
30873;BME280;17579;42.690;2.586;2022-11-20T00:45:58;97055.22;;;9.96;47.35
30873;BME280;17579;42.690;2.586;2022-11-20T00:48:25;97043.13;;;9.93;47.21
30873;BME280;17579;42.690;2.586;2022-11-20T00:50:50;97039.63;;;9.93;47.06
30873;BME280;17579;42.690;2.586;2022-11-20T00:53:16;97038.94;;;9.91;46.82
30873;BME280;17579;42.690;2.586;2022-11-20T00:55:42;97042.72;;;9.88;46.92
30873;BME280;17579;42.690;2.586;2022-11-20T00:58:07;97041.19;;;9.85;46.79
30873;BME280;17579;42.690;2.586;2022-11-20T01:00:33;97046.47;;;9.85;46.95
30873;BME280;17579;42.690;2.586;2022-11-20T01:02:59;97049.25;;;9.84;46.83
30873;BME280;17579;42.690;2.586;2022-11-20T01:05:24;97048.44;;;9.83;46.56
30873;BME280;17579;42.690;2.586;2022-11-20T01:07:50;97047.75;;;9.81;46.83
30873;BME280;17579;42.690;2.586;2022-11-20T01:10:15;97047.75;;;9.81;46.65
30873;BME280;17579;42.690;2.586;2022-11-20T01:12:41;97049.56;;;9.81;46.85
30873;BME280;17579;42.690;2.586;2022-11-20T01:15:07;97052.34;;;9.79;46.97
30873;BME280;17579;42.690;2.586;2022-11-20T01:17:33;97051.53;;;9.79;46.91
30873;BME280;17579;42.690;2.586;2022-11-20T01:19:58;97049.84;;;9.78;47.07
30873;BME280;17579;42.690;2.586;2022-11-20T01:22:24;97057.78;;;9.78;47.17
30873;BME280;17579;42.690;2.586;2022-11-20T01:24:49;97056.94;;;9.77;47.15
30873;BME280;17579;42.690;2.586;2022-11-20T01:27:15;97056.94;;;9.77;47.19
30873;BME280;17579;42.690;2.586;2022-11-20T01:29:40;97054.75;;;9.73;47.29
30873;BME280;17579;42.690;2.586;2022-11-20T01:32:06;97047.78;;;9.71;47.26
30873;BME280;17579;42.690;2.586;2022-11-20T01:34:31;97056.69;;;9.70;47.34
30873;BME280;17579;42.690;2.586;2022-11-20T01:36:57;97053.06;;;9.71;47.40
30873;BME280;17579;42.690;2.586;2022-11-20T01:39:24;97062.78;;;9.71;47.62
30873;BME280;17579;42.690;2.586;2022-11-20T01:41:52;97065.44;;;9.71;47.47
30873;BME280;17579;42.690;2.586;2022-11-20T01:44:53;97064.50;;;9.62;47.91
30873;BME280;17579;42.690;2.586;2022-11-20T01:47:40;97064.78;;;9.59;47.83
30873;BME280;17579;42.690;2.586;2022-11-20T01:50:27;97061.47;;;9.57;47.77
30873;BME280;17579;42.690;2.586;2022-11-20T01:53:02;97059.50;;;9.59;47.61
30873;BME280;17579;42.690;2.586;2022-11-20T01:55:37;97057.81;;;9.58;47.87
30873;BME280;17579;42.690;2.586;2022-11-20T01:58:04;97063.25;;;9.57;47.86
30873;BME280;17579;42.690;2.586;2022-11-20T02:00:30;97059.94;;;9.54;48.29
30873;BME280;17579;42.690;2.586;2022-11-20T02:02:58;97055.78;;;9.52;48.08
30873;BME280;17579;42.690;2.586;2022-11-20T02:05:31;97063.16;;;9.48;48.24
30873;BME280;17579;42.690;2.586;2022-11-20T02:07:58;97063.16;;;9.48;48.21
30873;BME280;17579;42.690;2.586;2022-11-20T02:10:25;97069.56;;;9.46;48.61
30873;BME280;17579;42.690;2.586;2022-11-20T02:12:51;97060.91;;;9.44;48.19
30873;BME280;17579;42.690;2.586;2022-11-20T02:15:29;97062.59;;;9.45;48.26
30873;BME280;17579;42.690;2.586;2022-11-20T02:17:55;97066.50;;;9.41;48.27
30873;BME280;17579;42.690;2.586;2022-11-20T02:20:20;97065.81;;;9.39;48.50
30873;BME280;17579;42.690;2.586;2022-11-20T02:22:57;97069.03;;;9.32;48.49
30873;BME280;17579;42.690;2.586;2022-11-20T02:25:26;97067.75;;;9.36;48.42
30873;BME280;17579;42.690;2.586;2022-11-20T02:27:52;97055.69;;;9.34;48.39
30873;BME280;17579;42.690;2.586;2022-11-20T02:30:18;97066.38;;;9.32;48.62
30873;BME280;17579;42.690;2.586;2022-11-20T02:32:44;97066.38;;;9.32;48.65
30873;BME280;17579;42.690;2.586;2022-11-20T02:38:10;97060.25;;;9.32;48.42
30873;BME280;17579;42.690;2.586;2022-11-20T02:40:36;97052.50;;;9.30;48.54
30873;BME280;17579;42.690;2.586;2022-11-20T02:43:01;97050.81;;;9.29;48.42
30873;BME280;17579;42.690;2.586;2022-11-20T02:45:27;97050.00;;;9.29;48.25
30873;BME280;17579;42.690;2.586;2022-11-20T02:47:52;97049.03;;;9.30;48.07
30873;BME280;17579;42.690;2.586;2022-11-20T02:50:18;97045.69;;;9.28;48.32
30873;BME280;17579;42.690;2.586;2022-11-20T02:52:44;97051.94;;;9.27;48.00
30873;BME280;17579;42.690;2.586;2022-11-20T02:55:09;97047.63;;;9.26;48.29
30873;BME280;17579;42.690;2.586;2022-11-20T02:57:35;97045.16;;;9.24;48.21
30873;BME280;17579;42.690;2.586;2022-11-20T03:00:01;97046.81;;;9.25;48.04
30873;BME280;17579;42.690;2.586;2022-11-20T03:02:31;97049.03;;;9.20;47.80
30873;BME280;17579;42.690;2.586;2022-11-20T03:04:57;97051.53;;;9.22;47.78
30873;BME280;17579;42.690;2.586;2022-11-20T03:07:22;97048.91;;;9.22;47.76
30873;BME280;17579;42.690;2.586;2022-11-20T03:09:48;97049.84;;;9.21;47.73
30873;BME280;17579;42.690;2.586;2022-11-20T03:12:14;97050.84;;;9.19;47.88
30873;BME280;17579;42.690;2.586;2022-11-20T03:14:39;97058.78;;;9.19;47.92
30873;BME280;17579;42.690;2.586;2022-11-20T03:17:05;97052.50;;;9.21;47.90
30873;BME280;17579;42.690;2.586;2022-11-20T03:19:31;97064.06;;;9.19;48.00
30873;BME280;17579;42.690;2.586;2022-11-20T03:21:57;97066.69;;;9.19;47.96
30873;BME280;17579;42.690;2.586;2022-11-20T03:24:22;97069.59;;;9.16;48.11
30873;BME280;17579;42.690;2.586;2022-11-20T03:26:48;97064.44;;;9.15;48.07
30873;BME280;17579;42.690;2.586;2022-11-20T03:29:13;97066.41;;;9.13;48.13
30873;BME280;17579;42.690;2.586;2022-11-20T03:31:40;97063.91;;;9.11;48.25
30873;BME280;17579;42.690;2.586;2022-11-20T03:34:08;97073.66;;;9.11;48.36
30873;BME280;17579;42.690;2.586;2022-11-20T03:36:34;97068.47;;;9.09;48.29
30873;BME280;17579;42.690;2.586;2022-11-20T03:39:00;97064.19;;;9.08;48.19
30873;BME280;17579;42.690;2.586;2022-11-20T03:41:28;97067.94;;;9.06;48.47
30873;BME280;17579;42.690;2.586;2022-11-20T03:43:57;97062.94;;;9.02;48.23
30873;BME280;17579;42.690;2.586;2022-11-20T03:46:23;97066.69;;;9.00;48.37
30873;BME280;17579;42.690;2.586;2022-11-20T03:48:49;97067.66;;;8.99;48.31
30873;BME280;17579;42.690;2.586;2022-11-20T03:51:27;97067.25;;;8.94;48.19
30873;BME280;17579;42.690;2.586;2022-11-20T03:53:55;97058.91;;;8.98;48.07
30873;BME280;17579;42.690;2.586;2022-11-20T03:56:25;97055.72;;;8.95;48.08
30873;BME280;17579;42.690;2.586;2022-11-20T03:58:51;97059.88;;;8.97;47.88
30873;BME280;17579;42.690;2.586;2022-11-20T04:01:25;97057.53;;;8.94;47.87
30873;BME280;17579;42.690;2.586;2022-11-20T04:03:53;97064.19;;;8.98;47.64
30873;BME280;17579;42.690;2.586;2022-11-20T04:06:21;97063.50;;;8.96;47.45
30873;BME280;17579;42.690;2.586;2022-11-20T04:08:48;97062.66;;;8.96;47.14
30873;BME280;17579;42.690;2.586;2022-11-20T04:11:20;97055.84;;;8.93;47.25
30873;BME280;17579;42.690;2.586;2022-11-20T04:13:49;97059.06;;;8.97;47.19
30873;BME280;17579;42.690;2.586;2022-11-20T04:16:16;97071.28;;;8.98;47.06
30873;BME280;17579;42.690;2.586;2022-11-20T04:18:41;97072.25;;;8.97;47.03
30873;BME280;17579;42.690;2.586;2022-11-20T04:21:08;97073.22;;;8.96;47.00
30873;BME280;17579;42.690;2.586;2022-11-20T04:23:34;97081.00;;;8.97;46.69
30873;BME280;17579;42.690;2.586;2022-11-20T04:26:08;97077.81;;;8.94;46.97
30873;BME280;17579;42.690;2.586;2022-11-20T04:28:35;97081.69;;;8.99;46.42
30873;BME280;17579;42.690;2.586;2022-11-20T04:31:12;97085.72;;;8.94;46.47
30873;BME280;17579;42.690;2.586;2022-11-20T04:33:39;97093.91;;;9.00;46.11
30873;BME280;17579;42.690;2.586;2022-11-20T04:36:07;97097.53;;;8.99;45.98
30873;BME280;17579;42.690;2.586;2022-11-20T04:38:33;97100.84;;;9.01;45.85
30873;BME280;17579;42.690;2.586;2022-11-20T04:41:00;97102.53;;;9.02;45.74
30873;BME280;17579;42.690;2.586;2022-11-20T04:43:26;97103.34;;;9.03;45.32
30873;BME280;17579;42.690;2.586;2022-11-20T04:45:56;97113.91;;;9.03;45.57
30873;BME280;17579;42.690;2.586;2022-11-20T04:48:23;97112.78;;;9.06;45.07
30873;BME280;17579;42.690;2.586;2022-11-20T04:50:49;97104.75;;;9.07;45.08
30873;BME280;17579;42.690;2.586;2022-11-20T04:53:15;97112.66;;;9.07;44.80
30873;BME280;17579;42.690;2.586;2022-11-20T04:55:41;97107.94;;;9.11;44.76
30873;BME280;17579;42.690;2.586;2022-11-20T04:58:06;97113.22;;;9.11;44.57
30873;BME280;17579;42.690;2.586;2022-11-20T05:00:32;97109.44;;;9.13;44.65
30873;BME280;17579;42.690;2.586;2022-11-20T05:02:57;97110.31;;;9.14;44.69
30873;BME280;17579;42.690;2.586;2022-11-20T05:05:23;97107.53;;;9.15;44.62
30873;BME280;17579;42.690;2.586;2022-11-20T05:07:49;97107.53;;;9.15;44.84
30873;BME280;17579;42.690;2.586;2022-11-20T05:10:14;97114.59;;;9.15;44.54
30873;BME280;17579;42.690;2.586;2022-11-20T05:12:40;97108.63;;;9.13;44.65
30873;BME280;17579;42.690;2.586;2022-11-20T05:15:06;97111.25;;;9.13;44.65
30873;BME280;17579;42.690;2.586;2022-11-20T05:17:32;97109.59;;;9.12;44.56
30873;BME280;17579;42.690;2.586;2022-11-20T05:19:57;97112.22;;;9.12;44.54
30873;BME280;17579;42.690;2.586;2022-11-20T05:22:23;97114.19;;;9.10;44.37
30873;BME280;17579;42.690;2.586;2022-11-20T05:24:48;97110.00;;;9.07;44.56
30873;BME280;17579;42.690;2.586;2022-11-20T05:27:14;97109.34;;;9.05;44.65
30873;BME280;17579;42.690;2.586;2022-11-20T05:29:39;97106.81;;;9.04;44.68
30873;BME280;17579;42.690;2.586;2022-11-20T05:32:05;97104.31;;;9.02;44.69
30873;BME280;17579;42.690;2.586;2022-11-20T05:34:32;97102.66;;;9.01;44.87
30873;BME280;17579;42.690;2.586;2022-11-20T05:36:58;97105.44;;;8.99;44.69
30873;BME280;17579;42.690;2.586;2022-11-20T05:39:23;97110.72;;;8.99;44.73
30873;BME280;17579;42.690;2.586;2022-11-20T05:41:49;97108.22;;;8.98;44.83
30873;BME280;17579;42.690;2.586;2022-11-20T05:44:34;97101.13;;;8.98;44.93
30873;BME280;17579;42.690;2.586;2022-11-20T05:47:00;97109.19;;;8.97;45.15
30873;BME280;17579;42.690;2.586;2022-11-20T05:49:25;97105.00;;;8.94;45.29
30873;BME280;17579;42.690;2.586;2022-11-20T05:51:51;97106.81;;;8.94;45.43
30873;BME280;17579;42.690;2.586;2022-11-20T05:54:16;97113.22;;;8.91;45.37
30873;BME280;17579;42.690;2.586;2022-11-20T05:56:42;97110.56;;;8.91;45.48
30873;BME280;17579;42.690;2.586;2022-11-20T05:59:08;97119.44;;;8.90;45.49
30873;BME280;17579;42.690;2.586;2022-11-20T06:01:33;97113.22;;;8.91;45.61
30873;BME280;17579;42.690;2.586;2022-11-20T06:04:01;97116.94;;;8.89;45.41
30873;BME280;17579;42.690;2.586;2022-11-20T06:06:27;97114.44;;;8.87;45.47
30873;BME280;17579;42.690;2.586;2022-11-20T06:08:54;97120.69;;;8.86;45.43
30873;BME280;17579;42.690;2.586;2022-11-20T06:11:21;97115.28;;;8.88;45.49
30873;BME280;17579;42.690;2.586;2022-11-20T06:13:48;97119.44;;;8.90;45.42
30873;BME280;17579;42.690;2.586;2022-11-20T06:16:16;97112.50;;;8.89;45.63
30873;BME280;17579;42.690;2.586;2022-11-20T06:18:42;97112.38;;;8.91;45.42
30873;BME280;17579;42.690;2.586;2022-11-20T06:21:14;97116.94;;;8.89;45.45
30873;BME280;17579;42.690;2.586;2022-11-20T06:23:40;97115.97;;;8.90;45.41
30873;BME280;17579;42.690;2.586;2022-11-20T06:28:45;97112.50;;;8.89;45.48
30873;BME280;17579;42.690;2.586;2022-11-20T06:31:13;97114.31;;;8.89;45.61
30873;BME280;17579;42.690;2.586;2022-11-20T06:33:39;97116.81;;;8.90;45.62
30873;BME280;17579;42.690;2.586;2022-11-20T06:36:05;97117.91;;;8.88;45.83
30873;BME280;17579;42.690;2.586;2022-11-20T06:38:31;97112.63;;;8.88;45.58
30873;BME280;17579;42.690;2.586;2022-11-20T06:40:57;97121.41;;;8.88;45.85
30873;BME280;17579;42.690;2.586;2022-11-20T06:43:23;97123.03;;;8.89;45.92
30873;BME280;17579;42.690;2.586;2022-11-20T06:45:52;97120.53;;;8.88;45.93
30873;BME280;17579;42.690;2.586;2022-11-20T06:48:18;97123.91;;;8.90;45.87
30873;BME280;17579;42.690;2.586;2022-11-20T06:50:44;97126.41;;;8.91;46.11
30873;BME280;17579;42.690;2.586;2022-11-20T06:53:09;97124.72;;;8.90;45.97
30873;BME280;17579;42.690;2.586;2022-11-20T06:55:35;97125.69;;;8.89;46.21
30873;BME280;17579;42.690;2.586;2022-11-20T06:58:00;97124.72;;;8.90;46.37
30873;BME280;17579;42.690;2.586;2022-11-20T07:00:26;97132.50;;;8.92;46.28
30873;BME280;17579;42.690;2.586;2022-11-20T07:02:51;97131.53;;;8.93;46.35
30873;BME280;17579;42.690;2.586;2022-11-20T07:05:17;97132.22;;;8.95;46.49
30873;BME280;17579;42.690;2.586;2022-11-20T07:07:43;97137.50;;;8.95;46.58
30873;BME280;17579;42.690;2.586;2022-11-20T07:10:09;97148.75;;;8.97;46.53
30873;BME280;17579;42.690;2.586;2022-11-20T07:12:35;97151.25;;;8.98;46.43
30873;BME280;17579;42.690;2.586;2022-11-20T07:15:00;97155.72;;;8.98;46.43
30873;BME280;17579;42.690;2.586;2022-11-20T07:17:26;97160.97;;;8.98;46.66
30873;BME280;17579;42.690;2.586;2022-11-20T07:19:51;97171.25;;;9.01;46.61
30873;BME280;17579;42.690;2.586;2022-11-20T07:22:17;97168.47;;;9.02;46.57
30873;BME280;17579;42.690;2.586;2022-11-20T07:24:42;97178.19;;;9.02;46.54
30873;BME280;17579;42.690;2.586;2022-11-20T07:27:08;97165.69;;;9.04;46.75
30873;BME280;17579;42.690;2.586;2022-11-20T07:29:34;97156.09;;;9.03;46.83
30873;BME280;17579;42.690;2.586;2022-11-20T07:31:59;97162.09;;;9.05;47.04
30873;BME280;17579;42.690;2.586;2022-11-20T07:34:25;97161.97;;;9.07;46.85
30873;BME280;17579;42.690;2.586;2022-11-20T07:36:50;97159.88;;;9.10;46.97
30873;BME280;17579;42.690;2.586;2022-11-20T07:39:16;97158.91;;;9.11;46.92
30873;BME280;17579;42.690;2.586;2022-11-20T07:41:41;97158.91;;;9.11;47.08
30873;BME280;17579;42.690;2.586;2022-11-20T07:44:07;97156.81;;;9.15;47.10
30873;BME280;17579;42.690;2.586;2022-11-20T07:46:32;97171.66;;;9.16;47.23
30873;BME280;17579;42.690;2.586;2022-11-20T07:48:58;97183.75;;;9.18;47.36
30873;BME280;17579;42.690;2.586;2022-11-20T07:51:23;97188.75;;;9.22;47.31
30873;BME280;17579;42.690;2.586;2022-11-20T07:53:52;97191.97;;;9.25;47.24
30873;BME280;17579;42.690;2.586;2022-11-20T07:56:18;97194.03;;;9.31;47.31
30873;BME280;17579;42.690;2.586;2022-11-20T07:58:44;97190.31;;;9.34;47.03
30873;BME280;17579;42.690;2.586;2022-11-20T08:01:10;97197.78;;;9.39;47.28
30873;BME280;17579;42.690;2.586;2022-11-20T08:03:35;97195.69;;;9.42;47.09
30873;BME280;17579;42.690;2.586;2022-11-20T08:06:04;97196.94;;;9.48;47.21
30873;BME280;17579;42.690;2.586;2022-11-20T08:08:30;97180.00;;;9.50;47.10
30873;BME280;17579;42.690;2.586;2022-11-20T08:10:58;97182.06;;;9.57;46.79
30873;BME280;17579;42.690;2.586;2022-11-20T08:13:36;97190.28;;;9.63;47.04
30873;BME280;17579;42.690;2.586;2022-11-20T08:16:13;97180.81;;;9.70;46.99
30873;BME280;17579;42.690;2.586;2022-11-20T08:18:39;97184.56;;;9.78;47.04
30873;BME280;17579;42.690;2.586;2022-11-20T08:21:04;97184.84;;;9.84;46.90
30873;BME280;17579;42.690;2.586;2022-11-20T08:23:30;97180.78;;;9.90;46.53
30873;BME280;17579;42.690;2.586;2022-11-20T08:25:56;97180.22;;;9.96;46.61
30873;BME280;17579;42.690;2.586;2022-11-20T08:28:21;97170.88;;;10.02;46.46
30873;BME280;17579;42.690;2.586;2022-11-20T08:30:47;97189.66;;;10.09;46.42
30873;BME280;17579;42.690;2.586;2022-11-20T08:33:13;97178.63;;;10.13;46.24
30873;BME280;17579;42.690;2.586;2022-11-20T08:35:39;97178.19;;;10.18;46.34
30873;BME280;17579;42.690;2.586;2022-11-20T08:38:06;97182.75;;;10.26;46.63
30873;BME280;17579;42.690;2.586;2022-11-20T08:40:32;97182.75;;;10.35;46.27
30873;BME280;17579;42.690;2.586;2022-11-20T08:42:58;97181.19;;;10.43;46.40
30873;BME280;17579;42.690;2.586;2022-11-20T08:45:24;97176.69;;;10.53;45.97
30873;BME280;17579;42.690;2.586;2022-11-20T08:47:50;97178.59;;;10.61;46.06
30873;BME280;17579;42.690;2.586;2022-11-20T08:50:16;97176.06;;;10.69;45.62
30873;BME280;17579;42.690;2.586;2022-11-20T08:52:42;97172.81;;;10.75;45.39
30873;BME280;17579;42.690;2.586;2022-11-20T08:55:09;97173.03;;;10.82;45.53
30873;BME280;17579;42.690;2.586;2022-11-20T08:57:36;97180.09;;;10.91;45.32
30873;BME280;17579;42.690;2.586;2022-11-20T09:00:03;97184.78;;;10.97;44.76
30873;BME280;17579;42.690;2.586;2022-11-20T09:02:29;97177.91;;;11.04;44.89
30873;BME280;17579;42.690;2.586;2022-11-20T09:04:54;97177.34;;;11.11;44.98
30873;BME280;17579;42.690;2.586;2022-11-20T09:07:20;97186.19;;;11.19;44.91
30873;BME280;17579;42.690;2.586;2022-11-20T09:09:46;97185.97;;;11.31;44.84
30873;BME280;17579;42.690;2.586;2022-11-20T09:12:12;97189.53;;;11.39;44.33
30873;BME280;17579;42.690;2.586;2022-11-20T09:14:37;97189.72;;;11.46;44.40
30873;BME280;17579;42.690;2.586;2022-11-20T09:17:03;97184.66;;;11.53;44.09
30873;BME280;17579;42.690;2.586;2022-11-20T09:19:29;97190.19;;;11.59;43.90
30873;BME280;17579;42.690;2.586;2022-11-20T09:21:54;97200.84;;;11.68;44.24
30873;BME280;17579;42.690;2.586;2022-11-20T09:24:20;97205.91;;;11.79;43.81
30873;BME280;17579;42.690;2.586;2022-11-20T09:26:46;97202.66;;;11.85;43.64
30873;BME280;17579;42.690;2.586;2022-11-20T09:29:12;97205.00;;;11.88;43.54
30873;BME280;17579;42.690;2.586;2022-11-20T09:31:37;97215.00;;;11.94;43.68
30873;BME280;17579;42.690;2.586;2022-11-20T09:34:03;97211.56;;;12.02;43.56
30873;BME280;17579;42.690;2.586;2022-11-20T09:36:28;97218.06;;;12.08;43.54
30873;BME280;17579;42.690;2.586;2022-11-20T09:38:54;97221.75;;;12.15;43.37
30873;BME280;17579;42.690;2.586;2022-11-20T09:53:06;97222.03;;;12.64;43.08
30873;BME280;17579;42.690;2.586;2022-11-20T09:55:35;97227.06;;;12.76;42.56
30873;BME280;17579;42.690;2.586;2022-11-20T09:58:01;97223.28;;;12.87;42.14
30873;BME280;17579;42.690;2.586;2022-11-20T10:00:31;97223.16;;;12.96;41.49
30873;BME280;17579;42.690;2.586;2022-11-20T10:03:03;97214.88;;;12.99;41.81
30873;BME280;17579;42.690;2.586;2022-11-20T10:05:48;97220.88;;;13.10;41.78
30873;BME280;17579;42.690;2.586;2022-11-20T10:08:25;97216.09;;;13.22;41.51
30873;BME280;17579;42.690;2.586;2022-11-20T10:14:13;97228.59;;;13.46;41.71
30873;BME280;17579;42.690;2.586;2022-11-20T10:25:43;97230.28;;;13.96;40.14
30873;BME280;17579;42.690;2.586;2022-11-20T10:28:28;97224.16;;;13.96;40.81
30873;BME280;17579;42.690;2.586;2022-11-20T10:31:10;97234.09;;;14.02;40.46
30873;BME280;17579;42.690;2.586;2022-11-20T10:33:40;97223.28;;;14.12;40.52
30873;BME280;17579;42.690;2.586;2022-11-20T10:36:19;97218.78;;;14.20;40.75
30873;BME280;17579;42.690;2.586;2022-11-20T10:38:57;97209.47;;;14.33;40.48
30873;BME280;17579;42.690;2.586;2022-11-20T10:41:29;97201.94;;;14.45;39.79
30873;BME280;17579;42.690;2.586;2022-11-20T10:44:15;97208.75;;;14.55;40.19
30873;BME280;17579;42.690;2.586;2022-11-20T10:47:03;97204.88;;;14.75;39.35
30873;BME280;17579;42.690;2.586;2022-11-20T10:49:30;97207.69;;;14.81;39.61
30873;BME280;17579;42.690;2.586;2022-11-20T10:52:41;97177.03;;;14.85;40.06
30873;BME280;17579;42.690;2.586;2022-11-20T10:57:59;97164.78;;;15.07;39.24
30873;BME280;17579;42.690;2.586;2022-11-20T11:00:30;97162.72;;;15.18;38.76
30873;BME280;17579;42.690;2.586;2022-11-20T11:02:55;97148.16;;;15.29;39.08
30873;BME280;17579;42.690;2.586;2022-11-20T11:05:51;97135.78;;;15.36;39.17
30873;BME280;17579;42.690;2.586;2022-11-20T11:08:20;97124.84;;;15.46;38.63
30873;BME280;17579;42.690;2.586;2022-11-20T11:10:55;97124.16;;;15.52;38.62
30873;BME280;17579;42.690;2.586;2022-11-20T11:13:30;97113.59;;;15.58;38.86
30873;BME280;17579;42.690;2.586;2022-11-20T11:15:56;97096.97;;;15.71;37.89
30873;BME280;17579;42.690;2.586;2022-11-20T11:18:30;97106.63;;;15.72;38.35
30873;BME280;17579;42.690;2.586;2022-11-20T11:21:00;97104.94;;;15.80;37.64
30873;BME280;17579;42.690;2.586;2022-11-20T11:23:44;97101.72;;;15.84;38.28
30873;BME280;17579;42.690;2.586;2022-11-20T11:26:23;97092.63;;;15.93;38.23
30873;BME280;17579;42.690;2.586;2022-11-20T11:28:57;97093.38;;;16.02;37.96
30873;BME280;17579;42.690;2.586;2022-11-20T11:31:28;97090.44;;;16.12;37.96
30873;BME280;17579;42.690;2.586;2022-11-20T11:34:08;97083.22;;;16.27;37.79
30873;BME280;17579;42.690;2.586;2022-11-20T11:36:39;97091.88;;;16.44;37.39
30873;BME280;17579;42.690;2.586;2022-11-20T11:39:10;97089.09;;;16.53;37.03
30873;BME280;17579;42.690;2.586;2022-11-20T11:41:36;97097.81;;;16.61;36.80
30873;BME280;17579;42.690;2.586;2022-11-20T11:44:23;97089.44;;;16.65;37.22
30873;BME280;17579;42.690;2.586;2022-11-20T11:47:04;97101.28;;;16.77;36.83
30873;BME280;17579;42.690;2.586;2022-11-20T11:49:30;97089.13;;;16.89;36.12
30873;BME280;17579;42.690;2.586;2022-11-20T11:52:11;97080.84;;;16.84;36.53
30873;BME280;17579;42.690;2.586;2022-11-20T11:54:53;97092.13;;;16.86;36.94
30873;BME280;17579;42.690;2.586;2022-11-20T12:00:15;97080.06;;;17.05;36.84
30873;BME280;17579;42.690;2.586;2022-11-20T12:03:07;97081.13;;;17.11;36.81
30873;BME280;17579;42.690;2.586;2022-11-20T12:05:44;97079.53;;;17.17;36.51
30873;BME280;17579;42.690;2.586;2022-11-20T12:08:21;97079.16;;;17.20;36.48
30873;BME280;17579;42.690;2.586;2022-11-20T12:10:54;97069.16;;;17.28;36.72
30873;BME280;17579;42.690;2.586;2022-11-20T12:13:42;97065.72;;;17.35;36.64
30873;BME280;17579;42.690;2.586;2022-11-20T12:16:15;97062.53;;;17.46;36.22
30873;BME280;17579;42.690;2.586;2022-11-20T12:18:43;97049.84;;;17.55;36.04
30873;BME280;17579;42.690;2.586;2022-11-20T12:24:23;97048.22;;;17.60;36.71
30873;BME280;17579;42.690;2.586;2022-11-20T12:27:27;97052.78;;;17.66;36.31
30873;BME280;17579;42.690;2.586;2022-11-20T12:30:18;97052.44;;;17.76;36.39
30873;BME280;17579;42.690;2.586;2022-11-20T12:32:56;97046.09;;;17.84;36.03
30873;BME280;17579;42.690;2.586;2022-11-20T12:38:45;97052.34;;;17.91;36.04
30873;BME280;17579;42.690;2.586;2022-11-20T12:44:52;97052.00;;;17.94;36.53
30873;BME280;17579;42.690;2.586;2022-11-20T12:56:48;97049.59;;;18.13;35.73
30873;BME280;17579;42.690;2.586;2022-11-20T13:02:27;97050.44;;;18.13;35.81
30873;BME280;17579;42.690;2.586;2022-11-20T13:05:24;97049.41;;;18.14;35.96
30873;BME280;17579;42.690;2.586;2022-11-20T13:07:53;97042.25;;;18.22;35.18
30873;BME280;17579;42.690;2.586;2022-11-20T13:10:39;97051.25;;;18.14;35.57
30873;BME280;17579;42.690;2.586;2022-11-20T13:16:19;97050.09;;;18.23;35.42
30873;BME280;17579;42.690;2.586;2022-11-20T13:18:50;97051.97;;;18.29;35.23
30873;BME280;17579;42.690;2.586;2022-11-20T13:21:18;97047.41;;;18.30;35.30
30873;BME280;17579;42.690;2.586;2022-11-20T13:23:45;97056.28;;;18.30;35.38
30873;BME280;17579;42.690;2.586;2022-11-20T13:26:18;97049.03;;;18.24;35.90
30873;BME280;17579;42.690;2.586;2022-11-20T13:28:46;97054.03;;;18.34;35.49
30873;BME280;17579;42.690;2.586;2022-11-20T13:31:30;97054.22;;;18.32;36.02
30873;BME280;17579;42.690;2.586;2022-11-20T13:33:56;97050.53;;;18.40;35.36
30873;BME280;17579;42.690;2.586;2022-11-20T13:36:26;97048.91;;;18.39;35.35
30873;BME280;17579;42.690;2.586;2022-11-20T13:38:54;97047.25;;;18.38;35.72
30873;BME280;17579;42.690;2.586;2022-11-20T13:41:39;97040.88;;;18.39;35.93
30873;BME280;17579;42.690;2.586;2022-11-20T13:44:30;97054.47;;;18.38;35.97
30873;BME280;17579;42.690;2.586;2022-11-20T13:46:59;97043.34;;;18.41;35.45
30873;BME280;17579;42.690;2.586;2022-11-20T13:49:33;97046.81;;;18.34;35.83
30873;BME280;17579;42.690;2.586;2022-11-20T13:58:29;97042.34;;;18.48;35.88
30873;BME280;17579;42.690;2.586;2022-11-20T14:01:10;97042.97;;;18.50;36.00
30873;BME280;17579;42.690;2.586;2022-11-20T14:03:38;97051.03;;;18.50;36.14
30873;BME280;17579;42.690;2.586;2022-11-20T14:08:48;97053.50;;;18.59;35.93
30873;BME280;17579;42.690;2.586;2022-11-20T14:11:28;97053.09;;;18.55;36.02
30873;BME280;17579;42.690;2.586;2022-11-20T14:14:17;97054.53;;;18.58;36.05
30873;BME280;17579;42.690;2.586;2022-11-20T14:16:45;97055.31;;;18.45;36.33
30873;BME280;17579;42.690;2.586;2022-11-20T14:19:26;97069.63;;;18.24;36.31
30873;BME280;17579;42.690;2.586;2022-11-20T14:22:06;97060.44;;;18.40;36.54
30873;BME280;17579;42.690;2.586;2022-11-20T14:24:32;97055.53;;;18.43;36.39
30873;BME280;17579;42.690;2.586;2022-11-20T14:26:58;97074.34;;;18.15;36.92
30873;BME280;17579;42.690;2.586;2022-11-20T14:29:28;97060.69;;;18.03;37.35